Airfield :
LOGIN :

Register | Disclaimer

   EN    FR    IT 

 










Legend :    VFR   Marginal VFR   IFR   Intensive IFR   Very Intensive IFR
Visi :
Ceiling :
>= 8 km
>= 3000ft
5 to 8 km
1000 to 3000 ft
1500m to 5 km
500 to 1000 ft
800 to 1500m
200 to 500 ft
< 800m
< 200 ft
Symbols :   Thunderstorms  Fog  Heavy snow  Heavy precipitations  Wind > 20 kt
SIGMETs :     Misc.  Thunderstorms  Icing  Turbulence  Mountain Waves  Volcanic Ashes






- Airport Elevation : 1504 ft
- IATA code : PNA


LEPP - Noain Pamplona

CURRENT METAR :
  • 162000Z 08005KT 030V130 CAVOK 12/07 Q1023

EXPIRED METARs :
  • 161930Z 05003KT 010V090 CAVOK 13/07 Q1023
  • 161900Z 02003KT 340V110 CAVOK 14/07 Q1023
  • 161830Z VRB02KT CAVOK 13/07 Q1022
  • 161800Z 33004KT CAVOK 14/07 Q1022

TAF TAF LEPP
Valid from the 16 at 15:00 until the 17 at 15:00 UTC


161400Z 1615/1715 18009KT CAVOK TX19/1615Z TN08/1712Z
TEMPO 1615/1621 18015G25KT
BECMG 1708/1710 35010KT
TEMPO 1710/1715 35015G25KT
TEMPO 1708/1715 3000 RA BKN010



MET'MAP, your aeronautical weather chart ! - Copyright ORBIFLY December 2007 - Disclaimer

ORBIFLY MET'MAP TEAM :

Programming & Development : Alexandra Zaïnal
Concept & original design : Baudouin d'Aumeries
Assistance for programming : Marc-Olivier Méhu
Technical & hardware support : Manuel Goepfert

Contact : metmap@orbifly.com




SOURCES & CREDITS :

   NOAA